Skip to content
Christman Field Latest Observations
Select Units
Date Time
MST
Temp
°F
RH
%
DewPt
°F
Wind
mph
Dir
°
Gust
mph
Dir
°
Press
in Hg
Solar
W/m^2
Prec
in
2022-06-28 00:00 58.0 62.8 45.4 2.0 328 2.7 351 25.101 0.2 0.00
2022-06-27 23:55 57.9 63.4 45.5 2.2 343 3.2 238 25.092 0.2 0.00
2022-06-27 23:50 58.0 63.4 45.7 2.6 254 4.7 342 25.097 0.2 0.00
2022-06-27 23:45 57.2 62.4 44.5 3.8 347 4.9 350 25.104 0.2 0.00
2022-06-27 23:40 57.5 63.9 45.4 3.3 229 4.5 229 25.109 0.2 0.00
2022-06-27 23:35 58.4 62.2 45.5 3.0 279 4.9 258 25.112 0.2 0.00
2022-06-27 23:30 58.6 62.2 45.7 0.9 265 2.1 265 25.115 0.2 0.00
2022-06-27 23:25 58.3 63.1 45.8 4.5 102 6.6 6 25.109 0.2 0.00
2022-06-27 23:20 58.0 63.7 45.8 5.3 42 6.4 36 25.105 0.2 0.00
2022-06-27 23:15 58.8 59.7 44.8 4.1 55 6.8 80 25.104 0.2 0.00
2022-06-27 23:10 58.4 59.6 44.4 1.8 43 4.6 59 25.108 0.2 0.00
2022-06-27 23:05 58.7 59.6 44.7 2.4 349 4.0 358 25.103 0.2 0.00
2022-06-27 23:00 58.0 58.4 43.5 3.5 45 5.1 16 25.103 0.2 0.00
2022-06-27 22:55 57.3 62.2 44.5 2.6 48 5.4 339 25.100 0.2 0.00
2022-06-27 22:50 57.7 62.4 44.9 5.7 331 7.1 343 25.100 0.2 0.00
2022-06-27 22:45 59.7 59.9 45.8 6.4 341 8.2 354 25.100 0.2 0.00
2022-06-27 22:40 63.6 51.3 45.3 2.0 289 4.3 289 25.099 0.1 0.00
2022-06-27 22:35 65.0 45.7 43.6 1.5 243 3.1 165 25.097 0.2 0.00
2022-06-27 22:30 64.4 43.7 41.8 3.4 196 6.3 176 25.099 0.2 0.00
2022-06-27 22:25 61.6 50.0 42.8 2.9 157 4.4 158 25.101 0.2 0.00
2022-06-27 22:20 62.9 52.7 45.3 2.0 178 3.0 135 25.101 0.2 0.00
2022-06-27 22:15 64.0 48.0 43.9 1.9 163 3.2 234 25.100 0.2 0.00
2022-06-27 22:10 63.2 48.4 43.4 2.6 201 3.3 182 25.100 0.2 0.00
2022-06-27 22:05 62.3 50.7 43.8 3.5 181 5.4 211 25.097 0.2 0.00
2022-06-27 22:00 63.2 52.2 45.4 5.9 194 6.8 196 25.093 0.2 0.00
2022-06-27 21:55 64.4 48.4 44.5 3.8 180 5.7 180 25.094 0.2 0.00
2022-06-27 21:50 63.8 48.5 44.1 2.5 175 4.8 175 25.095 0.2 0.00
2022-06-27 21:45 63.0 51.0 44.6 4.3 201 6.1 180 25.095 0.2 0.00
2022-06-27 21:40 62.7 52.4 45.0 4.9 199 7.0 192 25.097 0.2 0.00
2022-06-27 21:35 62.6 52.3 44.8 3.7 186 5.2 191 25.098 0.2 0.00
Date Time
MST
Temp
°C
RH
%
DewPt
°C
Wind
m/s
Dir
°
Gust
m/s
Dir
°
Press
hPa
Solar
W/m^2
Prec
mm
2022-06-28 00:00 14.4 62.8 7.5 0.9 328 1.2 351 850.01 0.2 0.00
2022-06-27 23:55 14.4 63.4 7.5 1.0 343 1.4 238 849.73 0.2 0.00
2022-06-27 23:50 14.5 63.4 7.6 1.2 254 2.1 342 849.87 0.2 0.00
2022-06-27 23:45 14.0 62.4 6.9 1.7 347 2.2 350 850.12 0.2 0.00
2022-06-27 23:40 14.2 63.9 7.4 1.5 229 2.0 229 850.30 0.2 0.00
2022-06-27 23:35 14.7 62.2 7.5 1.3 279 2.2 258 850.39 0.2 0.00
2022-06-27 23:30 14.8 62.2 7.6 0.4 265 0.9 265 850.49 0.2 0.00
2022-06-27 23:25 14.6 63.1 7.7 2.0 102 3.0 6 850.28 0.2 0.00
2022-06-27 23:20 14.5 63.7 7.7 2.4 42 2.8 36 850.15 0.2 0.00
2022-06-27 23:15 14.9 59.7 7.1 1.8 55 3.0 80 850.13 0.2 0.00
2022-06-27 23:10 14.6 59.6 6.9 0.8 43 2.1 59 850.26 0.2 0.00
2022-06-27 23:05 14.9 59.6 7.1 1.1 349 1.8 358 850.07 0.2 0.00
2022-06-27 23:00 14.4 58.4 6.4 1.5 45 2.3 16 850.10 0.2 0.00
2022-06-27 22:55 14.1 62.2 7.0 1.2 48 2.4 339 850.00 0.2 0.00
2022-06-27 22:50 14.3 62.4 7.2 2.6 331 3.2 343 849.99 0.2 0.00
2022-06-27 22:45 15.4 59.9 7.6 2.9 341 3.6 354 849.98 0.2 0.00
2022-06-27 22:40 17.6 51.3 7.4 0.9 289 1.9 289 849.97 0.1 0.00
2022-06-27 22:35 18.3 45.7 6.4 0.7 243 1.4 165 849.89 0.2 0.00
2022-06-27 22:30 18.0 43.7 5.5 1.5 196 2.8 176 849.95 0.2 0.00
2022-06-27 22:25 16.5 50.0 6.0 1.3 157 2.0 158 850.00 0.2 0.00
2022-06-27 22:20 17.1 52.7 7.4 0.9 178 1.4 135 850.00 0.2 0.00
2022-06-27 22:15 17.8 48.0 6.6 0.8 163 1.4 234 849.98 0.2 0.00
2022-06-27 22:10 17.3 48.4 6.3 1.2 201 1.5 182 849.97 0.2 0.00
2022-06-27 22:05 16.9 50.7 6.6 1.6 181 2.4 211 849.88 0.2 0.00
2022-06-27 22:00 17.3 52.2 7.4 2.6 194 3.1 196 849.76 0.2 0.00
2022-06-27 21:55 18.0 48.4 7.0 1.7 180 2.5 180 849.78 0.2 0.00
2022-06-27 21:50 17.7 48.5 6.7 1.1 175 2.2 175 849.83 0.2 0.00
2022-06-27 21:45 17.2 51.0 7.0 1.9 201 2.7 180 849.81 0.2 0.00
2022-06-27 21:40 17.0 52.4 7.2 2.2 199 3.1 192 849.87 0.2 0.00
2022-06-27 21:35 17.0 52.3 7.1 1.6 186 2.3 191 849.93 0.2 0.00
CIRA

Cooperative Institute for Research in the Atmosphere

Current Events

RAMMB SLIDER

RAMMB SLIDER
Colorado State University Ram Logo

Our Mission

The Cooperative Institute for Research in the Atmosphere (CIRA) serves as a nexus for multi-disciplinary cooperation between NOAA research scientists and Colorado State University research staff, faculty, and students, aligning NOAA-identified research theme areas with long-standing academic strengths of the University.

Our mission is: to foster additional collaboration with national and international agencies who are developing related capabilities; to affect the fundamental research conducted at the University towards NOAA’s operational needs; and to communicate our research and its practical implications to the scientific community and the public.

To this end, we are dedicated to: providing high-quality training to ensure operational user proficiency; conducting outreach programs to K-12 education and the general public to promote environmental literacy; and to quantifying and communicating the significant positive societal impacts of NOAA research on our everyday lives.

Our Technology

With NOAA and CSU support CIRA has operated a Geostationary Operational Environmental Satellite (GOES) Earth Station since 1980. Today our collection capability handles multiple simultaneous GOES transmissions, NOAA polar data, Himawari-8 and European MSG. CIRA also plays an important role in each new GOES satellite as one of the primary test sites for initial transmissions and sensor verification.

CIRA operates a high-technology infrastructure to support research in our major theme areas. The infrastructure contains over 300 workstations/servers, a satellite Earth Station with an online archive, several high-performance modelling clusters, and a high-speed network. With its expertise in data fusion, CIRA is developing systems and tools that will simplify the acquisition and manipulation of satellite and model data for scientific research.